Time;durP1;ratioP1;P1;durP2;ratioP2;P2;SDS_P1;SDS_P2;PMS_P1;PMS_P2;Temp;Humidity;BMP_temperature;BMP_pressure;BME280_temperature;BME280_humidity;BME280_pressure;Samples;Min_cycle;Max_cycle;Signal;HPM_P1;HPM_P2
2023/03/20 00:01:17;;;;;;;111.78;48.63;;;;;;;;;;5113453;28;20028;-74
2023/03/20 00:03:44;;;;;;;118.70;50.10;;;;;;;;;;5113092;28;20511;-73
2023/03/20 00:06:17;;;;;;;118.10;48.17;;;;;;;;;;5113331;28;20146;-73
2023/03/20 00:08:47;;;;;;;116.60;48.17;;;;;;;;;;5113112;28;20032;-73
2023/03/20 00:11:29;;;;;;;114.60;48.35;;;;;;;;;;5113844;28;20024;-74
2023/03/20 00:13:56;;;;;;;121.07;48.83;;;;;;;;;;5113215;28;20020;-74
2023/03/20 00:16:24;;;;;;;115.93;48.72;;;;;;;;;;5113069;28;20020;-74
2023/03/20 00:18:50;;;;;;;124.53;49.33;;;;;;;;;;5113201;28;20032;-74
2023/03/20 00:21:19;;;;;;;120.47;48.92;;;;;;;;;;5113159;28;20085;-74
2023/03/20 00:23:46;;;;;;;138.75;52.92;;;;;;;;;;5112795;28;20020;-73
2023/03/20 00:26:13;;;;;;;116.63;49.90;;;;;;;;;;5094846;28;20034;-74
2023/03/20 00:28:41;;;;;;;121.75;51.67;;;;;;;;;;5112733;28;20020;-73
2023/03/20 00:31:17;;;;;;;119.93;49.92;;;;;;;;;;5112739;28;20380;-73
2023/03/20 00:33:44;;;;;;;121.68;49.90;;;;;;;;;;5112517;28;20042;-73
2023/03/20 00:36:10;;;;;;;122.00;50.53;;;;;;;;;;5112773;28;20122;-73
2023/03/20 00:38:36;;;;;;;115.47;48.80;;;;;;;;;;5094674;28;20492;-73
2023/03/20 00:41:02;;;;;;;111.95;47.22;;;;;;;;;;5112929;28;20058;-73
2023/03/20 00:43:28;;;;;;;109.10;46.70;;;;;;;;;;5112432;28;20023;-73
2023/03/20 00:45:54;;;;;;;108.47;45.92;;;;;;;;;;5112663;28;20034;-74
2023/03/20 00:48:20;;;;;;;109.80;47.25;;;;;;;;;;5094352;28;20055;-74
2023/03/20 00:50:48;;;;;;;115.95;47.53;;;;;;;;;;5112595;28;20031;-73
2023/03/20 00:53:14;;;;;;;112.00;49.60;;;;;;;;;;5094094;28;20527;-73
2023/03/20 00:55:40;;;;;;;114.47;47.15;;;;;;;;;;5112575;28;20129;-75
2023/03/20 00:58:06;;;;;;;111.53;48.00;;;;;;;;;;5112298;28;20047;-73
2023/03/20 01:00:38;;;;;;;101.07;45.75;;;;;;;;;;5110415;28;20109;-75
2023/03/20 01:03:11;;;;;;;105.93;44.83;;;;;;;;;;5110030;28;20463;-73
2023/03/20 01:05:37;;;;;;;98.00;44.67;;;;;;;;;;5112092;28;20024;-73
2023/03/20 01:08:05;;;;;;;106.22;46.17;;;;;;;;;;5111499;28;20031;-73
2023/03/20 01:10:32;;;;;;;101.47;45.60;;;;;;;;;;5111359;28;20028;-74
2023/03/20 01:12:59;;;;;;;108.20;45.22;;;;;;;;;;5110980;28;20072;-73
2023/03/20 01:15:30;;;;;;;103.57;44.40;;;;;;;;;;5111382;28;20116;-74
2023/03/20 01:17:56;;;;;;;107.70;46.38;;;;;;;;;;5111366;28;20337;-74
2023/03/20 01:20:23;;;;;;;114.00;47.13;;;;;;;;;;5111015;28;20028;-74
2023/03/20 01:22:49;;;;;;;104.38;45.15;;;;;;;;;;5110948;28;20027;-74
2023/03/20 01:25:16;;;;;;;108.55;45.40;;;;;;;;;;5111104;28;20035;-74
2023/03/20 01:27:46;;;;;;;101.15;45.00;;;;;;;;;;5111215;28;20094;-74
2023/03/20 01:30:16;;;;;;;96.97;43.85;;;;;;;;;;5111210;28;20492;-73
2023/03/20 01:32:42;;;;;;;98.72;42.70;;;;;;;;;;5110868;28;20030;-73
2023/03/20 01:35:11;;;;;;;94.03;41.00;;;;;;;;;;5111163;28;20073;-74
2023/03/20 01:37:37;;;;;;;98.55;39.63;;;;;;;;;;5110957;28;20541;-75
2023/03/20 01:40:04;;;;;;;98.97;41.38;;;;;;;;;;5111032;28;20059;-73
2023/03/20 01:42:31;;;;;;;86.72;36.90;;;;;;;;;;5110872;28;20059;-74
2023/03/20 01:44:57;;;;;;;82.82;35.90;;;;;;;;;;5111066;28;20016;-74
2023/03/20 01:47:24;;;;;;;85.45;35.38;;;;;;;;;;5110993;28;20024;-75
2023/03/20 01:50:09;;;;;;;82.10;35.42;;;;;;;;;;5111081;28;20016;-74
2023/03/20 01:52:35;;;;;;;88.03;34.38;;;;;;;;;;5110663;28;20016;-74
2023/03/20 01:55:02;;;;;;;73.85;32.03;;;;;;;;;;5110859;28;20111;-73
2023/03/20 01:57:28;;;;;;;72.07;32.63;;;;;;;;;;5110841;28;20343;-75
2023/03/20 02:00:02;;;;;;;83.03;34.42;;;;;;;;;;5110734;28;20057;-73
2023/03/20 02:02:29;;;;;;;78.53;32.33;;;;;;;;;;5110543;28;20020;-73
2023/03/20 02:04:57;;;;;;;73.57;31.90;;;;;;;;;;5110672;28;20026;-73
2023/03/20 02:07:24;;;;;;;75.20;32.58;;;;;;;;;;5110442;28;20043;-73
2023/03/20 02:09:50;;;;;;;78.65;32.03;;;;;;;;;;5110629;28;20392;-73
2023/03/20 02:12:17;;;;;;;68.47;31.33;;;;;;;;;;5110396;28;20034;-73
2023/03/20 02:14:45;;;;;;;63.67;28.98;;;;;;;;;;5111940;28;20031;-74
2023/03/20 02:17:11;;;;;;;55.97;28.08;;;;;;;;;;5109959;28;20020;-75
2023/03/20 02:19:40;;;;;;;62.72;28.77;;;;;;;;;;5110656;28;20028;-74
2023/03/20 02:22:09;;;;;;;59.13;27.30;;;;;;;;;;5110414;28;20016;-74
2023/03/20 02:24:47;;;;;;;51.65;25.27;;;;;;;;;;5110626;28;20027;-74
2023/03/20 02:27:13;;;;;;;47.42;23.50;;;;;;;;;;5110256;28;20046;-73
2023/03/20 02:29:45;;;;;;;45.10;22.20;;;;;;;;;;5110578;28;20381;-73
2023/03/20 02:32:25;;;;;;;42.65;19.80;;;;;;;;;;5112509;28;20019;-73
2023/03/20 02:35:10;;;;;;;38.28;18.73;;;;;;;;;;5112769;28;20019;-73
2023/03/20 02:37:54;;;;;;;31.45;16.02;;;;;;;;;;5114024;28;20046;-73
2023/03/20 02:40:20;;;;;;;32.78;15.00;;;;;;;;;;5113984;28;20038;-72
2023/03/20 02:43:05;;;;;;;31.50;14.20;;;;;;;;;;5113787;28;20380;-73
2023/03/20 02:45:34;;;;;;;30.17;13.52;;;;;;;;;;5114017;28;20106;-73
2023/03/20 02:48:12;;;;;;;22.13;11.85;;;;;;;;;;5113724;28;20026;-73
2023/03/20 02:50:45;;;;;;;24.00;11.50;;;;;;;;;;5113784;28;20109;-74
2023/03/20 02:53:11;;;;;;;22.05;11.23;;;;;;;;;;5113609;28;20035;-74
2023/03/20 02:55:47;;;;;;;22.35;10.73;;;;;;;;;;5113652;28;20024;-72
2023/03/20 02:58:22;;;;;;;21.90;11.30;;;;;;;;;;5113560;28;20027;-73
2023/03/20 03:00:56;;;;;;;18.17;10.75;;;;;;;;;;5113753;28;20026;-72
2023/03/20 03:03:24;;;;;;;20.80;10.38;;;;;;;;;;5113238;28;20107;-73
2023/03/20 03:06:01;;;;;;;18.98;10.13;;;;;;;;;;5113429;28;20028;-73
2023/03/20 03:08:30;;;;;;;20.92;10.45;;;;;;;;;;5113459;27;20024;-73
2023/03/20 03:11:01;;;;;;;21.00;11.73;;;;;;;;;;5113185;28;20020;-73
2023/03/20 03:13:29;;;;;;;22.23;11.18;;;;;;;;;;5113157;28;20053;-73
2023/03/20 03:16:01;;;;;;;20.65;10.43;;;;;;;;;;5113128;28;20027;-73
2023/03/20 03:18:28;;;;;;;18.27;10.35;;;;;;;;;;5113367;28;20106;-73
2023/03/20 03:20:57;;;;;;;17.42;10.27;;;;;;;;;;5113198;28;20404;-72
2023/03/20 03:23:26;;;;;;;18.98;10.43;;;;;;;;;;5113437;28;20382;-73
2023/03/20 03:25:53;;;;;;;19.52;11.30;;;;;;;;;;5112066;28;20283;-73
2023/03/20 03:28:35;;;;;;;19.27;10.43;;;;;;;;;;5113750;28;20384;-73
2023/03/20 03:31:02;;;;;;;18.15;10.45;;;;;;;;;;5114097;28;20487;-74
2023/03/20 03:33:29;;;;;;;17.98;11.05;;;;;;;;;;5113668;28;20194;-75
2023/03/20 03:36:02;;;;;;;20.83;11.63;;;;;;;;;;5113398;28;20099;-73
2023/03/20 03:38:37;;;;;;;18.67;11.13;;;;;;;;;;5113830;28;20481;-74
2023/03/20 03:41:18;;;;;;;19.92;10.70;;;;;;;;;;5113821;28;20647;-73
2023/03/20 03:43:59;;;;;;;17.58;10.45;;;;;;;;;;5113299;28;20063;-74
2023/03/20 03:46:46;;;;;;;19.52;10.48;;;;;;;;;;5113508;28;20032;-75
2023/03/20 03:49:15;;;;;;;15.68;9.20;;;;;;;;;;5113477;28;20055;-74
2023/03/20 03:51:42;;;;;;;16.10;9.95;;;;;;;;;;5113547;28;20023;-74
2023/03/20 03:54:30;;;;;;;12.30;8.10;;;;;;;;;;5113375;28;20480;-74
2023/03/20 03:56:57;;;;;;;11.50;7.97;;;;;;;;;;5113597;27;20032;-75
2023/03/20 03:59:25;;;;;;;15.32;8.43;;;;;;;;;;5113277;28;20038;-75
2023/03/20 04:01:51;;;;;;;13.02;8.23;;;;;;;;;;5113490;28;20373;-74
2023/03/20 04:04:19;;;;;;;13.75;8.57;;;;;;;;;;5113538;28;20036;-74
2023/03/20 04:06:45;;;;;;;14.85;9.13;;;;;;;;;;5113473;27;20118;-75
2023/03/20 04:09:11;;;;;;;17.35;10.98;;;;;;;;;;5112877;28;20151;-75
2023/03/20 04:11:37;;;;;;;15.55;9.73;;;;;;;;;;5113508;28;20028;-73
2023/03/20 04:14:03;;;;;;;14.02;8.93;;;;;;;;;;5113179;28;20019;-74
2023/03/20 04:16:29;;;;;;;14.38;9.25;;;;;;;;;;5113256;27;20030;-73
2023/03/20 04:18:55;;;;;;;16.20;9.57;;;;;;;;;;5113903;28;20051;-72
2023/03/20 04:21:22;;;;;;;16.15;10.05;;;;;;;;;;5113926;27;20024;-71
2023/03/20 04:23:48;;;;;;;16.70;9.30;;;;;;;;;;5112942;28;20111;-72
2023/03/20 04:26:14;;;;;;;15.00;9.68;;;;;;;;;;5112015;28;20059;-72
2023/03/20 04:28:40;;;;;;;20.65;11.52;;;;;;;;;;5112469;28;20016;-72
2023/03/20 04:31:06;;;;;;;17.40;10.95;;;;;;;;;;5112852;28;20477;-73
2023/03/20 04:33:32;;;;;;;20.75;12.55;;;;;;;;;;5112424;28;20030;-72
2023/03/20 04:35:59;;;;;;;19.23;10.70;;;;;;;;;;5112926;28;20480;-72
2023/03/20 04:38:25;;;;;;;19.95;11.30;;;;;;;;;;5112734;28;20392;-72
2023/03/20 04:40:51;;;;;;;21.25;11.70;;;;;;;;;;5112863;28;20069;-73
2023/03/20 04:43:17;;;;;;;22.45;13.77;;;;;;;;;;5094197;28;20016;-73
2023/03/20 04:45:43;;;;;;;23.35;14.23;;;;;;;;;;5108447;28;20039;-76
2023/03/20 04:48:10;;;;;;;27.85;15.20;;;;;;;;;;5112107;28;20035;-75
2023/03/20 04:50:36;;;;;;;22.35;13.68;;;;;;;;;;5112320;28;20020;-75
2023/03/20 04:53:02;;;;;;;24.80;14.32;;;;;;;;;;5110176;28;20069;-74
2023/03/20 04:55:28;;;;;;;23.33;13.23;;;;;;;;;;5106513;27;20031;-76
2023/03/20 04:57:54;;;;;;;21.25;12.60;;;;;;;;;;5112817;28;20106;-77
2023/03/20 05:00:20;;;;;;;22.95;12.98;;;;;;;;;;5110607;28;20023;-75
2023/03/20 05:02:46;;;;;;;20.77;11.93;;;;;;;;;;5111286;28;20110;-77
2023/03/20 05:05:12;;;;;;;23.08;13.27;;;;;;;;;;5112742;28;20063;-76
2023/03/20 05:07:38;;;;;;;17.67;10.60;;;;;;;;;;5110524;28;20080;-77
2023/03/20 05:10:04;;;;;;;18.52;10.70;;;;;;;;;;5092250;28;20475;-77
2023/03/20 05:12:30;;;;;;;18.35;10.57;;;;;;;;;;5110666;28;20537;-74
2023/03/20 05:14:56;;;;;;;16.02;9.90;;;;;;;;;;5112355;28;20020;-72
2023/03/20 05:17:22;;;;;;;14.55;8.55;;;;;;;;;;5112135;28;20044;-72
2023/03/20 05:19:49;;;;;;;16.27;9.40;;;;;;;;;;5112120;28;20028;-72
2023/03/20 05:22:15;;;;;;;16.77;9.73;;;;;;;;;;5111738;28;20043;-72
2023/03/20 05:24:41;;;;;;;17.88;8.93;;;;;;;;;;5111975;28;20023;-72
2023/03/20 05:27:07;;;;;;;18.50;10.15;;;;;;;;;;5093145;28;20019;-72
2023/03/20 05:29:33;;;;;;;15.88;9.32;;;;;;;;;;5111381;28;20023;-73
2023/03/20 05:31:59;;;;;;;14.70;8.55;;;;;;;;;;5111382;28;20028;-72
2023/03/20 05:34:26;;;;;;;14.63;9.27;;;;;;;;;;5111893;28;20023;-71
2023/03/20 05:36:52;;;;;;;14.95;8.85;;;;;;;;;;5112364;28;20026;-72
2023/03/20 05:39:18;;;;;;;15.70;9.60;;;;;;;;;;5112494;28;20020;-74
2023/03/20 05:41:44;;;;;;;15.15;9.35;;;;;;;;;;5111936;28;20075;-73
2023/03/20 05:44:10;;;;;;;19.38;10.65;;;;;;;;;;5112106;28;20028;-73
2023/03/20 05:46:36;;;;;;;19.23;11.43;;;;;;;;;;5111627;28;20024;-73
2023/03/20 05:49:02;;;;;;;19.80;10.75;;;;;;;;;;5112049;28;20084;-73
2023/03/20 05:51:28;;;;;;;19.75;11.48;;;;;;;;;;5112039;28;20485;-72
2023/03/20 05:53:54;;;;;;;17.90;10.40;;;;;;;;;;5111805;28;20020;-72
2023/03/20 05:56:20;;;;;;;19.38;11.00;;;;;;;;;;5112332;28;20089;-75
2023/03/20 05:58:46;;;;;;;18.67;12.35;;;;;;;;;;5111046;28;20180;-74
2023/03/20 06:01:15;;;;;;;20.20;11.85;;;;;;;;;;5112133;28;20035;-73
2023/03/20 06:03:41;;;;;;;19.48;12.18;;;;;;;;;;5111838;28;20445;-73
2023/03/20 06:06:07;;;;;;;22.27;12.52;;;;;;;;;;5112252;28;20102;-74
2023/03/20 06:08:35;;;;;;;24.52;14.52;;;;;;;;;;5115903;28;20508;-74
2023/03/20 06:11:01;;;;;;;27.05;14.30;;;;;;;;;;5115387;28;20088;-72
2023/03/20 06:13:27;;;;;;;22.38;13.20;;;;;;;;;;5115447;28;20049;-72
2023/03/20 06:15:53;;;;;;;23.73;13.98;;;;;;;;;;5115550;28;20036;-73
2023/03/20 06:18:19;;;;;;;25.70;13.68;;;;;;;;;;5115312;28;20024;-74
2023/03/20 06:20:45;;;;;;;26.10;13.45;;;;;;;;;;5096918;28;20457;-78
2023/03/20 06:23:12;;;;;;;32.88;15.80;;;;;;;;;;5109908;28;20034;-74
2023/03/20 06:25:38;;;;;;;25.27;14.27;;;;;;;;;;5110006;28;20103;-75
2023/03/20 06:28:04;;;;;;;24.45;15.18;;;;;;;;;;5114997;28;20089;-78
2023/03/20 06:30:30;;;;;;;28.60;15.85;;;;;;;;;;5118950;28;20020;-77
2023/03/20 06:32:56;;;;;;;27.30;15.82;;;;;;;;;;5116276;27;20023;-75
2023/03/20 06:35:22;;;;;;;24.83;13.85;;;;;;;;;;5105913;28;20027;-73
2023/03/20 06:37:48;;;;;;;26.63;14.75;;;;;;;;;;5115752;28;20365;-75
2023/03/20 06:40:14;;;;;;;23.40;13.32;;;;;;;;;;5098217;28;20037;-74
2023/03/20 06:42:40;;;;;;;26.52;13.88;;;;;;;;;;5107300;28;20068;-74
2023/03/20 06:45:07;;;;;;;21.15;13.77;;;;;;;;;;5114698;28;20035;-75
2023/03/20 06:47:33;;;;;;;23.20;13.68;;;;;;;;;;5114348;28;20015;-74
2023/03/20 06:49:59;;;;;;;23.13;13.30;;;;;;;;;;5114127;28;20043;-74
2023/03/20 06:52:25;;;;;;;26.23;13.80;;;;;;;;;;5114363;28;20023;-75
2023/03/20 06:54:51;;;;;;;24.65;13.27;;;;;;;;;;5116089;28;20163;-75
2023/03/20 06:57:17;;;;;;;26.33;13.63;;;;;;;;;;5117630;28;20103;-75
2023/03/20 06:59:43;;;;;;;23.60;14.20;;;;;;;;;;5110157;28;20073;-75
2023/03/20 07:02:10;;;;;;;29.27;13.23;;;;;;;;;;5121341;28;20024;-75
2023/03/20 07:04:36;;;;;;;24.00;12.82;;;;;;;;;;5118746;28;20023;-75
2023/03/20 07:07:02;;;;;;;22.55;12.18;;;;;;;;;;5110792;28;20019;-75
2023/03/20 07:09:28;;;;;;;21.90;12.57;;;;;;;;;;5090874;28;20076;-76
2023/03/20 07:11:54;;;;;;;20.40;11.23;;;;;;;;;;5104305;28;20400;-74
2023/03/20 07:14:21;;;;;;;21.27;11.60;;;;;;;;;;5114679;28;20382;-77
2023/03/20 07:16:47;;;;;;;22.35;11.32;;;;;;;;;;5114187;28;20380;-75
2023/03/20 07:19:13;;;;;;;21.40;10.60;;;;;;;;;;5110902;28;20023;-74
2023/03/20 07:21:39;;;;;;;20.20;10.40;;;;;;;;;;5116586;28;20042;-75
2023/03/20 07:24:06;;;;;;;17.17;10.18;;;;;;;;;;5117578;28;20435;-78
2023/03/20 07:26:32;;;;;;;20.27;11.80;;;;;;;;;;5117171;28;20031;-75
2023/03/20 07:28:58;;;;;;;16.00;10.35;;;;;;;;;;5116570;28;20024;-75
2023/03/20 07:31:27;;;;;;;19.50;10.82;;;;;;;;;;5117731;28;20032;-75
2023/03/20 07:33:53;;;;;;;27.75;10.70;;;;;;;;;;5116221;28;20012;-73
2023/03/20 07:36:20;;;;;;;25.52;11.80;;;;;;;;;;5113938;28;20031;-74
2023/03/20 07:38:46;;;;;;;21.05;10.55;;;;;;;;;;5113940;28;20016;-75
2023/03/20 07:41:12;;;;;;;16.30;10.38;;;;;;;;;;5113552;28;20442;-75
2023/03/20 07:43:37;;;;;;;20.40;10.52;;;;;;;;;;5113285;28;20089;-74
2023/03/20 07:46:04;;;;;;;18.67;10.27;;;;;;;;;;5113446;28;20059;-74
2023/03/20 07:48:30;;;;;;;17.80;10.65;;;;;;;;;;5113023;28;20113;-74
2023/03/20 07:50:56;;;;;;;24.90;11.05;;;;;;;;;;5115122;28;20500;-76
2023/03/20 07:53:22;;;;;;;17.95;10.10;;;;;;;;;;5103805;28;20022;-76
2023/03/20 07:55:48;;;;;;;18.58;9.90;;;;;;;;;;5107257;28;20026;-76
2023/03/20 07:58:15;;;;;;;17.05;9.70;;;;;;;;;;5114648;28;20027;-76
2023/03/20 08:00:41;;;;;;;17.27;9.45;;;;;;;;;;5096014;28;20168;-75
2023/03/20 08:03:07;;;;;;;17.40;10.35;;;;;;;;;;5112852;28;20073;-76
2023/03/20 08:05:33;;;;;;;16.10;9.13;;;;;;;;;;5113267;28;20249;-75
2023/03/20 08:07:59;;;;;;;17.45;9.48;;;;;;;;;;5112587;28;20122;-75
2023/03/20 08:10:25;;;;;;;20.23;9.60;;;;;;;;;;5110878;28;20243;-75
2023/03/20 08:12:51;;;;;;;14.48;9.32;;;;;;;;;;5115115;28;20023;-76
2023/03/20 08:15:17;;;;;;;17.70;9.18;;;;;;;;;;5119656;28;20023;-76
2023/03/20 08:17:44;;;;;;;17.00;9.27;;;;;;;;;;5113372;28;20039;-76
2023/03/20 08:20:11;;;;;;;15.07;8.45;;;;;;;;;;5120003;28;20038;-79
2023/03/20 08:22:37;;;;;;;18.45;8.98;;;;;;;;;;5119394;28;20039;-76
2023/03/20 08:25:04;;;;;;;18.63;9.40;;;;;;;;;;5115842;28;20058;-75
2023/03/20 08:27:30;;;;;;;17.17;8.20;;;;;;;;;;5113638;28;20112;-76
2023/03/20 08:29:56;;;;;;;17.80;7.97;;;;;;;;;;5111516;28;20464;-73
2023/03/20 08:32:22;;;;;;;19.05;8.55;;;;;;;;;;5112302;28;20059;-74
2023/03/20 08:34:48;;;;;;;17.45;8.10;;;;;;;;;;5112792;28;20049;-74
2023/03/20 08:37:14;;;;;;;12.57;6.93;;;;;;;;;;5104645;28;20061;-77
2023/03/20 08:39:40;;;;;;;14.10;7.32;;;;;;;;;;5112485;28;20024;-76
2023/03/20 08:42:06;;;;;;;19.15;7.15;;;;;;;;;;5114770;28;20496;-77
2023/03/20 08:44:32;;;;;;;19.42;7.60;;;;;;;;;;5113105;28;20031;-74
2023/03/20 08:46:59;;;;;;;16.05;6.97;;;;;;;;;;5112762;28;20027;-72
2023/03/20 08:49:25;;;;;;;13.80;7.40;;;;;;;;;;5112754;28;20067;-79
2023/03/20 08:51:51;;;;;;;17.92;6.95;;;;;;;;;;5096070;28;20019;-76
2023/03/20 08:54:17;;;;;;;15.50;7.43;;;;;;;;;;5098344;28;20533;-76
2023/03/20 08:56:44;;;;;;;14.55;7.38;;;;;;;;;;5112121;28;20381;-72
2023/03/20 08:59:10;;;;;;;15.52;7.47;;;;;;;;;;5112282;28;20039;-74
2023/03/20 09:01:36;;;;;;;13.55;7.20;;;;;;;;;;5112092;28;20039;-73
2023/03/20 09:04:02;;;;;;;15.48;8.30;;;;;;;;;;5112053;28;20019;-73
2023/03/20 09:06:28;;;;;;;14.38;7.93;;;;;;;;;;5112008;28;20435;-73
2023/03/20 09:08:56;;;;;;;13.23;8.50;;;;;;;;;;5112057;28;20031;-72
2023/03/20 09:11:22;;;;;;;14.55;7.68;;;;;;;;;;5112070;28;20015;-73
2023/03/20 09:13:48;;;;;;;16.15;8.15;;;;;;;;;;5112016;28;20062;-73
2023/03/20 09:16:14;;;;;;;18.08;8.30;;;;;;;;;;5111995;28;20042;-73
2023/03/20 09:18:40;;;;;;;18.63;9.10;;;;;;;;;;5111971;28;20031;-71
2023/03/20 09:21:06;;;;;;;14.57;7.63;;;;;;;;;;5112143;28;20031;-72
2023/03/20 09:23:32;;;;;;;18.35;8.82;;;;;;;;;;5111784;28;20023;-71
2023/03/20 09:25:58;;;;;;;13.50;7.60;;;;;;;;;;5111947;28;20389;-72
2023/03/20 09:28:24;;;;;;;14.15;7.80;;;;;;;;;;5111440;28;20076;-72
2023/03/20 09:30:54;;;;;;;18.65;8.45;;;;;;;;;;5111633;28;20094;-72
2023/03/20 09:33:20;;;;;;;19.77;8.95;;;;;;;;;;5093383;28;20038;-73
2023/03/20 09:35:46;;;;;;;26.48;9.70;;;;;;;;;;5111964;28;20019;-72
2023/03/20 09:38:13;;;;;;;16.02;8.50;;;;;;;;;;5112044;28;20429;-74
2023/03/20 09:40:54;;;;;;;21.05;8.95;;;;;;;;;;5113858;28;20123;-72
2023/03/20 09:43:38;;;;;;;20.40;9.50;;;;;;;;;;5115951;28;20078;-72
2023/03/20 09:46:20;;;;;;;22.40;9.60;;;;;;;;;;5115886;28;20042;-73
2023/03/20 09:48:52;;;;;;;21.45;9.65;;;;;;;;;;5116043;28;20027;-72
2023/03/20 09:51:24;;;;;;;24.08;9.55;;;;;;;;;;5115777;28;20108;-72
2023/03/20 09:53:55;;;;;;;21.13;9.75;;;;;;;;;;5115615;28;20481;-72
2023/03/20 09:56:23;;;;;;;19.40;9.93;;;;;;;;;;5115923;28;20034;-74
2023/03/20 09:59:07;;;;;;;18.08;10.55;;;;;;;;;;5115857;28;20031;-73
2023/03/20 10:01:39;;;;;;;21.23;10.38;;;;;;;;;;5115717;28;20112;-74
2023/03/20 10:04:10;;;;;;;20.50;9.68;;;;;;;;;;5115475;28;20023;-73
2023/03/20 10:06:37;;;;;;;24.95;10.48;;;;;;;;;;5115593;28;20374;-74
2023/03/20 10:09:11;;;;;;;21.20;11.10;;;;;;;;;;5115243;28;20447;-74
2023/03/20 10:11:46;;;;;;;27.30;10.95;;;;;;;;;;5115834;28;20024;-73
2023/03/20 10:14:12;;;;;;;20.60;10.82;;;;;;;;;;5115491;28;20019;-73
2023/03/20 10:16:38;;;;;;;22.42;11.25;;;;;;;;;;5115492;28;20577;-73
2023/03/20 10:19:23;;;;;;;22.85;10.80;;;;;;;;;;5115778;28;20102;-73
2023/03/20 10:21:52;;;;;;;24.05;10.80;;;;;;;;;;5115339;28;20334;-72
2023/03/20 10:24:27;;;;;;;20.58;10.65;;;;;;;;;;5115309;28;20024;-72
2023/03/20 10:26:55;;;;;;;21.02;10.43;;;;;;;;;;5114776;28;20088;-74
2023/03/20 10:29:39;;;;;;;22.88;10.45;;;;;;;;;;5114307;28;20020;-74
2023/03/20 10:32:10;;;;;;;27.25;11.43;;;;;;;;;;5114421;28;20047;-74
2023/03/20 10:34:36;;;;;;;30.80;10.57;;;;;;;;;;5115079;28;20098;-72
2023/03/20 10:37:08;;;;;;;23.65;10.98;;;;;;;;;;5114883;28;20108;-73
2023/03/20 10:39:34;;;;;;;22.73;10.88;;;;;;;;;;5114999;28;20118;-74
2023/03/20 10:42:01;;;;;;;23.08;10.38;;;;;;;;;;5114375;28;20122;-72
2023/03/20 10:44:46;;;;;;;23.00;10.75;;;;;;;;;;5114826;28;20480;-72
2023/03/20 10:47:13;;;;;;;26.48;11.00;;;;;;;;;;5114564;28;20034;-72
2023/03/20 10:49:45;;;;;;;20.75;10.65;;;;;;;;;;5114188;28;20030;-73
2023/03/20 10:52:14;;;;;;;30.40;10.55;;;;;;;;;;5113324;28;20562;-74
2023/03/20 10:54:42;;;;;;;24.52;11.77;;;;;;;;;;5096474;28;20683;-72
2023/03/20 10:57:13;;;;;;;24.75;10.50;;;;;;;;;;5114960;28;20023;-74
2023/03/20 10:59:44;;;;;;;28.83;10.40;;;;;;;;;;5114733;28;20081;-72
2023/03/20 11:02:11;;;;;;;27.05;10.73;;;;;;;;;;5114814;28;20397;-73
2023/03/20 11:04:37;;;;;;;23.60;10.13;;;;;;;;;;5114710;28;20024;-73
2023/03/20 11:07:09;;;;;;;23.42;10.15;;;;;;;;;;5114287;28;20040;-74
2023/03/20 11:09:35;;;;;;;26.83;10.18;;;;;;;;;;5114477;28;20107;-76
2023/03/20 11:12:02;;;;;;;21.60;9.43;;;;;;;;;;5114476;28;20024;-75
2023/03/20 11:14:36;;;;;;;26.38;10.32;;;;;;;;;;5114920;28;20327;-73
2023/03/20 11:17:03;;;;;;;21.23;8.70;;;;;;;;;;5114963;28;20016;-73
2023/03/20 11:19:32;;;;;;;23.42;9.98;;;;;;;;;;5114533;28;20469;-75
2023/03/20 11:22:01;;;;;;;29.55;10.75;;;;;;;;;;5114073;28;20177;-74
2023/03/20 11:24:33;;;;;;;25.52;10.07;;;;;;;;;;5114214;28;20480;-74
2023/03/20 11:27:07;;;;;;;34.25;10.48;;;;;;;;;;5113891;28;20032;-73
2023/03/20 11:29:34;;;;;;;19.27;10.02;;;;;;;;;;5113435;28;20051;-75
2023/03/20 11:32:05;;;;;;;25.33;10.05;;;;;;;;;;5113925;28;20498;-73
2023/03/20 11:34:33;;;;;;;29.88;10.57;;;;;;;;;;5113903;28;20020;-75
2023/03/20 11:37:06;;;;;;;28.15;10.60;;;;;;;;;;5113924;28;20472;-73
2023/03/20 11:39:32;;;;;;;27.70;8.93;;;;;;;;;;5114014;28;20077;-73
2023/03/20 11:42:00;;;;;;;19.75;9.05;;;;;;;;;;5095529;28;20041;-73
2023/03/20 11:44:30;;;;;;;22.70;9.00;;;;;;;;;;5113837;28;20023;-73
2023/03/20 11:46:56;;;;;;;20.67;8.93;;;;;;;;;;5113866;28;20449;-73
2023/03/20 11:49:24;;;;;;;24.27;8.88;;;;;;;;;;5113588;28;20019;-72
2023/03/20 11:51:51;;;;;;;23.55;9.05;;;;;;;;;;5113003;28;20027;-73
2023/03/20 11:54:19;;;;;;;21.17;9.02;;;;;;;;;;5113722;28;20447;-73
2023/03/20 11:56:53;;;;;;;31.52;9.40;;;;;;;;;;5113779;28;20016;-74
2023/03/20 11:59:19;;;;;;;21.77;8.40;;;;;;;;;;5114069;28;20034;-73
2023/03/20 12:01:48;;;;;;;21.15;8.85;;;;;;;;;;5113745;28;20024;-73
2023/03/20 12:04:26;;;;;;;20.67;8.50;;;;;;;;;;5113674;28;20032;-74
2023/03/20 12:06:52;;;;;;;19.75;8.45;;;;;;;;;;5113346;28;20031;-75
2023/03/20 12:09:39;;;;;;;19.23;8.75;;;;;;;;;;5113505;28;20024;-73
2023/03/20 12:12:12;;;;;;;21.17;8.95;;;;;;;;;;5112917;28;20240;-73
2023/03/20 12:14:42;;;;;;;20.35;8.40;;;;;;;;;;5113403;28;20050;-74
2023/03/20 12:17:20;;;;;;;17.63;8.10;;;;;;;;;;5113107;28;20028;-75
2023/03/20 12:19:48;;;;;;;23.98;8.23;;;;;;;;;;5113067;28;20016;-73
2023/03/20 12:22:26;;;;;;;22.10;8.70;;;;;;;;;;5112536;28;20080;-73
2023/03/20 12:25:01;;;;;;;23.08;8.50;;;;;;;;;;5113676;28;20043;-74
2023/03/20 12:27:28;;;;;;;19.05;9.07;;;;;;;;;;5113032;28;20496;-73
2023/03/20 12:30:05;;;;;;;20.60;9.07;;;;;;;;;;5112486;28;20493;-73
2023/03/20 12:32:50;;;;;;;20.10;8.85;;;;;;;;;;5112093;28;20053;-73
2023/03/20 12:35:18;;;;;;;22.60;9.13;;;;;;;;;;5112793;28;20024;-73
2023/03/20 12:37:45;;;;;;;16.35;8.05;;;;;;;;;;5112854;28;20059;-73
2023/03/20 12:40:24;;;;;;;21.00;8.68;;;;;;;;;;5113016;28;20027;-73
2023/03/20 12:43:16;;;;;;;18.77;8.20;;;;;;;;;;5112332;28;20024;-73
2023/03/20 12:45:47;;;;;;;18.88;8.27;;;;;;;;;;5108402;28;20144;-73
2023/03/20 12:48:32;;;;;;;18.75;8.40;;;;;;;;;;5114506;28;20024;-75
2023/03/20 12:51:11;;;;;;;23.13;10.20;;;;;;;;;;5114137;28;20470;-74
2023/03/20 12:53:55;;;;;;;21.73;8.30;;;;;;;;;;5113885;28;20020;-74
2023/03/20 12:56:42;;;;;;;19.08;6.82;;;;;;;;;;5113692;28;20059;-72
2023/03/20 12:59:17;;;;;;;24.20;8.73;;;;;;;;;;5112366;28;20059;-73
2023/03/20 13:01:55;;;;;;;16.17;7.57;;;;;;;;;;5112207;28;20027;-73
2023/03/20 13:04:32;;;;;;;21.25;8.02;;;;;;;;;;5112492;28;20473;-73
2023/03/20 13:07:02;;;;;;;15.52;8.15;;;;;;;;;;5111840;28;20113;-74
2023/03/20 13:09:31;;;;;;;17.88;7.13;;;;;;;;;;5112050;28;20027;-78
2023/03/20 13:12:16;;;;;;;17.30;7.55;;;;;;;;;;5111619;28;20473;-73
2023/03/20 13:15:03;;;;;;;23.90;7.95;;;;;;;;;;5111774;28;20077;-73
2023/03/20 13:17:29;;;;;;;20.63;8.50;;;;;;;;;;5112160;28;20016;-77
2023/03/20 13:19:58;;;;;;;21.27;8.27;;;;;;;;;;5112255;28;20426;-74
2023/03/20 13:22:30;;;;;;;16.35;7.82;;;;;;;;;;5112417;28;20058;-75
2023/03/20 13:25:03;;;;;;;20.45;7.65;;;;;;;;;;5113603;28;20035;-74
2023/03/20 13:27:40;;;;;;;26.42;7.97;;;;;;;;;;5113109;28;20492;-74
2023/03/20 13:30:18;;;;;;;21.35;7.20;;;;;;;;;;5112945;28;20024;-76
2023/03/20 13:32:44;;;;;;;22.48;7.68;;;;;;;;;;5112648;28;20027;-74
2023/03/20 13:35:29;;;;;;;19.52;6.65;;;;;;;;;;5112533;28;20023;-74
2023/03/20 13:37:58;;;;;;;18.05;7.05;;;;;;;;;;5111776;28;20023;-74
2023/03/20 13:40:32;;;;;;;15.90;7.57;;;;;;;;;;5112237;28;20451;-74
2023/03/20 13:43:13;;;;;;;16.58;7.35;;;;;;;;;;5112107;28;20031;-75
2023/03/20 13:45:40;;;;;;;18.38;7.53;;;;;;;;;;5112236;28;20028;-75
2023/03/20 13:48:25;;;;;;;18.23;7.13;;;;;;;;;;5112175;28;20051;-77
2023/03/20 13:51:00;;;;;;;19.40;7.88;;;;;;;;;;5112954;28;20019;-75
2023/03/20 13:54:01;;;;;;;16.50;6.40;;;;;;;;;;5107900;28;20065;-74
2023/03/20 13:56:37;;;;;;;17.70;6.70;;;;;;;;;;5005158;28;20133;-75
2023/03/20 13:59:27;;;;;;;19.83;7.30;;;;;;;;;;5079326;28;20047;-73
2023/03/20 14:01:58;;;;;;;18.90;6.20;;;;;;;;;;5078359;28;20036;-75
2023/03/20 14:04:26;;;;;;;21.52;7.15;;;;;;;;;;5112077;28;20124;-76
2023/03/20 14:06:54;;;;;;;18.25;6.38;;;;;;;;;;5113071;28;20034;-75
2023/03/20 14:09:26;;;;;;;20.23;7.78;;;;;;;;;;5113082;28;20036;-77
2023/03/20 14:11:54;;;;;;;24.23;9.02;;;;;;;;;;5094875;28;20076;-76
2023/03/20 14:14:43;;;;;;;15.07;6.90;;;;;;;;;;5111138;28;20353;-74
2023/03/20 14:17:25;;;;;;;14.05;6.50;;;;;;;;;;5097423;28;20594;-72
2023/03/20 14:19:52;;;;;;;22.77;7.82;;;;;;;;;;5106922;28;20028;-73
2023/03/20 14:22:19;;;;;;;19.23;6.90;;;;;;;;;;5105724;28;20044;-73
2023/03/20 14:24:52;;;;;;;18.00;8.70;;;;;;;;;;5118836;28;20035;-73
2023/03/20 14:27:20;;;;;;;18.23;7.25;;;;;;;;;;5111986;28;20019;-72
2023/03/20 14:29:46;;;;;;;20.00;7.13;;;;;;;;;;5114560;28;20088;-74
2023/03/20 14:32:12;;;;;;;16.23;7.25;;;;;;;;;;5115086;28;20051;-72
2023/03/20 14:35:04;;;;;;;22.83;6.65;;;;;;;;;;5117531;28;20024;-75